sensor_id;sensor_type;location;lat;lon;timestamp;P1;durP1;ratioP1;P2;durP2;ratioP2
18125;SDS011;53956;52.442;13.284;2023-10-09T00:01:41;5.70;;;3.23;;
18125;SDS011;53956;52.442;13.284;2023-10-09T00:04:09;3.53;;;2.90;;
18125;SDS011;53956;52.442;13.284;2023-10-09T00:06:37;4.77;;;3.23;;
18125;SDS011;53956;52.442;13.284;2023-10-09T00:09:03;6.17;;;3.93;;
18125;SDS011;53956;52.442;13.284;2023-10-09T00:11:56;5.43;;;3.70;;
18125;SDS011;53956;52.442;13.284;2023-10-09T00:14:25;6.97;;;4.33;;
18125;SDS011;53956;52.442;13.284;2023-10-09T00:16:55;9.93;;;4.53;;
18125;SDS011;53956;52.442;13.284;2023-10-09T00:19:30;5.93;;;3.90;;
18125;SDS011;53956;52.442;13.284;2023-10-09T00:21:57;6.47;;;4.07;;
18125;SDS011;53956;52.442;13.284;2023-10-09T00:24:31;7.33;;;4.60;;
18125;SDS011;53956;52.442;13.284;2023-10-09T00:26:59;7.87;;;4.67;;
18125;SDS011;53956;52.442;13.284;2023-10-09T00:29:38;9.83;;;5.77;;
18125;SDS011;53956;52.442;13.284;2023-10-09T00:32:10;10.83;;;6.77;;
18125;SDS011;53956;52.442;13.284;2023-10-09T00:34:52;9.03;;;6.10;;
18125;SDS011;53956;52.442;13.284;2023-10-09T00:37:23;11.10;;;7.10;;
18125;SDS011;53956;52.442;13.284;2023-10-09T00:39:51;11.53;;;7.50;;
18125;SDS011;53956;52.442;13.284;2023-10-09T00:42:23;7.77;;;5.40;;
18125;SDS011;53956;52.442;13.284;2023-10-09T00:44:54;9.67;;;5.03;;
18125;SDS011;53956;52.442;13.284;2023-10-09T00:47:21;6.43;;;4.53;;
18125;SDS011;53956;52.442;13.284;2023-10-09T00:49:52;6.23;;;3.87;;
18125;SDS011;53956;52.442;13.284;2023-10-09T00:52:24;5.73;;;3.33;;
18125;SDS011;53956;52.442;13.284;2023-10-09T00:54:57;5.47;;;3.20;;
18125;SDS011;53956;52.442;13.284;2023-10-09T00:57:32;4.93;;;3.00;;
18125;SDS011;53956;52.442;13.284;2023-10-09T01:00:03;6.80;;;3.63;;
18125;SDS011;53956;52.442;13.284;2023-10-09T01:02:39;4.70;;;3.50;;
18125;SDS011;53956;52.442;13.284;2023-10-09T01:05:08;4.47;;;3.23;;
18125;SDS011;53956;52.442;13.284;2023-10-09T01:07:44;3.60;;;3.00;;
18125;SDS011;53956;52.442;13.284;2023-10-09T01:10:12;4.73;;;3.10;;
18125;SDS011;53956;52.442;13.284;2023-10-09T01:12:43;5.47;;;3.13;;
18125;SDS011;53956;52.442;13.284;2023-10-09T01:15:12;5.30;;;3.27;;
18125;SDS011;53956;52.442;13.284;2023-10-09T01:18:00;5.37;;;3.17;;
18125;SDS011;53956;52.442;13.284;2023-10-09T01:20:32;4.10;;;3.23;;
18125;SDS011;53956;52.442;13.284;2023-10-09T01:23:07;5.13;;;3.10;;
18125;SDS011;53956;52.442;13.284;2023-10-09T01:25:36;5.57;;;3.17;;
18125;SDS011;53956;52.442;13.284;2023-10-09T01:28:08;4.67;;;3.10;;
18125;SDS011;53956;52.442;13.284;2023-10-09T01:30:35;4.13;;;3.00;;
18125;SDS011;53956;52.442;13.284;2023-10-09T01:33:06;5.93;;;3.23;;
18125;SDS011;53956;52.442;13.284;2023-10-09T01:35:47;4.20;;;3.10;;
18125;SDS011;53956;52.442;13.284;2023-10-09T01:38:22;5.93;;;3.13;;
18125;SDS011;53956;52.442;13.284;2023-10-09T01:40:57;5.87;;;3.50;;
18125;SDS011;53956;52.442;13.284;2023-10-09T01:43:32;5.10;;;3.00;;
18125;SDS011;53956;52.442;13.284;2023-10-09T01:46:00;5.13;;;2.97;;
18125;SDS011;53956;52.442;13.284;2023-10-09T01:48:30;6.70;;;3.30;;
18125;SDS011;53956;52.442;13.284;2023-10-09T01:51:03;4.87;;;3.30;;
18125;SDS011;53956;52.442;13.284;2023-10-09T01:53:32;4.40;;;2.90;;
18125;SDS011;53956;52.442;13.284;2023-10-09T01:56:09;6.03;;;2.90;;
18125;SDS011;53956;52.442;13.284;2023-10-09T01:58:40;5.97;;;3.00;;
18125;SDS011;53956;52.442;13.284;2023-10-09T02:01:08;5.53;;;3.43;;
18125;SDS011;53956;52.442;13.284;2023-10-09T02:03:35;5.13;;;3.30;;
18125;SDS011;53956;52.442;13.284;2023-10-09T02:06:02;5.87;;;3.30;;
18125;SDS011;53956;52.442;13.284;2023-10-09T02:08:30;6.13;;;3.07;;
18125;SDS011;53956;52.442;13.284;2023-10-09T02:11:01;5.60;;;3.57;;
18125;SDS011;53956;52.442;13.284;2023-10-09T02:13:29;5.07;;;3.17;;
18125;SDS011;53956;52.442;13.284;2023-10-09T02:15:59;6.10;;;3.80;;
18125;SDS011;53956;52.442;13.284;2023-10-09T02:18:39;5.40;;;3.10;;
18125;SDS011;53956;52.442;13.284;2023-10-09T02:21:18;5.23;;;3.37;;
18125;SDS011;53956;52.442;13.284;2023-10-09T02:23:53;4.73;;;2.93;;
18125;SDS011;53956;52.442;13.284;2023-10-09T02:26:23;7.40;;;3.60;;
18125;SDS011;53956;52.442;13.284;2023-10-09T02:28:51;8.67;;;3.47;;
18125;SDS011;53956;52.442;13.284;2023-10-09T02:31:23;6.30;;;3.57;;
18125;SDS011;53956;52.442;13.284;2023-10-09T02:33:53;7.03;;;3.70;;
18125;SDS011;53956;52.442;13.284;2023-10-09T02:36:20;5.40;;;3.53;;
18125;SDS011;53956;52.442;13.284;2023-10-09T02:38:47;4.67;;;3.30;;
18125;SDS011;53956;52.442;13.284;2023-10-09T02:41:18;6.83;;;3.60;;
18125;SDS011;53956;52.442;13.284;2023-10-09T02:43:49;5.30;;;3.53;;
18125;SDS011;53956;52.442;13.284;2023-10-09T02:46:16;10.23;;;3.80;;
18125;SDS011;53956;52.442;13.284;2023-10-09T02:48:45;7.63;;;4.20;;
18125;SDS011;53956;52.442;13.284;2023-10-09T02:51:17;7.20;;;3.87;;
18125;SDS011;53956;52.442;13.284;2023-10-09T02:53:57;7.33;;;3.83;;
18125;SDS011;53956;52.442;13.284;2023-10-09T02:56:31;4.27;;;3.60;;
18125;SDS011;53956;52.442;13.284;2023-10-09T02:59:04;6.17;;;3.87;;
18125;SDS011;53956;52.442;13.284;2023-10-09T03:01:32;6.67;;;4.20;;
18125;SDS011;53956;52.442;13.284;2023-10-09T03:04:00;8.00;;;3.83;;
18125;SDS011;53956;52.442;13.284;2023-10-09T03:06:28;8.70;;;4.17;;
18125;SDS011;53956;52.442;13.284;2023-10-09T03:08:56;6.27;;;4.37;;
18125;SDS011;53956;52.442;13.284;2023-10-09T03:11:23;7.60;;;4.10;;
18125;SDS011;53956;52.442;13.284;2023-10-09T03:13:51;6.30;;;4.30;;
18125;SDS011;53956;52.442;13.284;2023-10-09T03:16:21;6.77;;;4.40;;
18125;SDS011;53956;52.442;13.284;2023-10-09T03:18:49;9.17;;;4.27;;
18125;SDS011;53956;52.442;13.284;2023-10-09T03:21:17;6.83;;;4.77;;
18125;SDS011;53956;52.442;13.284;2023-10-09T03:23:45;7.40;;;4.77;;
18125;SDS011;53956;52.442;13.284;2023-10-09T03:26:14;6.13;;;4.17;;
18125;SDS011;53956;52.442;13.284;2023-10-09T03:28:43;7.40;;;4.40;;
18125;SDS011;53956;52.442;13.284;2023-10-09T03:31:10;7.63;;;4.27;;
18125;SDS011;53956;52.442;13.284;2023-10-09T03:33:38;7.90;;;4.70;;
18125;SDS011;53956;52.442;13.284;2023-10-09T03:36:05;8.00;;;4.63;;
18125;SDS011;53956;52.442;13.284;2023-10-09T03:38:34;9.23;;;4.97;;
18125;SDS011;53956;52.442;13.284;2023-10-09T03:41:02;8.13;;;4.93;;
18125;SDS011;53956;52.442;13.284;2023-10-09T03:43:32;8.43;;;4.87;;
18125;SDS011;53956;52.442;13.284;2023-10-09T03:46:02;6.87;;;4.33;;
18125;SDS011;53956;52.442;13.284;2023-10-09T03:48:30;8.70;;;5.00;;
18125;SDS011;53956;52.442;13.284;2023-10-09T03:51:00;6.97;;;4.73;;
18125;SDS011;53956;52.442;13.284;2023-10-09T03:53:34;7.40;;;4.67;;
18125;SDS011;53956;52.442;13.284;2023-10-09T03:56:02;8.20;;;5.17;;
18125;SDS011;53956;52.442;13.284;2023-10-09T03:58:30;7.47;;;4.63;;
18125;SDS011;53956;52.442;13.284;2023-10-09T04:00:59;10.13;;;5.37;;
18125;SDS011;53956;52.442;13.284;2023-10-09T04:03:25;6.37;;;4.80;;
18125;SDS011;53956;52.442;13.284;2023-10-09T04:05:52;6.83;;;4.60;;
18125;SDS011;53956;52.442;13.284;2023-10-09T04:08:20;7.93;;;4.40;;
18125;SDS011;53956;52.442;13.284;2023-10-09T04:10:53;6.77;;;4.70;;
18125;SDS011;53956;52.442;13.284;2023-10-09T04:13:26;7.93;;;5.20;;
18125;SDS011;53956;52.442;13.284;2023-10-09T04:15:58;6.47;;;4.67;;
18125;SDS011;53956;52.442;13.284;2023-10-09T04:18:34;7.90;;;4.90;;
18125;SDS011;53956;52.442;13.284;2023-10-09T04:21:03;8.30;;;5.20;;
18125;SDS011;53956;52.442;13.284;2023-10-09T04:23:45;6.30;;;4.60;;
18125;SDS011;53956;52.442;13.284;2023-10-09T04:26:29;8.07;;;4.70;;
18125;SDS011;53956;52.442;13.284;2023-10-09T04:28:59;8.90;;;5.17;;
18125;SDS011;53956;52.442;13.284;2023-10-09T04:31:27;9.60;;;4.67;;
18125;SDS011;53956;52.442;13.284;2023-10-09T04:33:57;8.50;;;5.00;;
18125;SDS011;53956;52.442;13.284;2023-10-09T04:36:38;8.17;;;4.87;;
18125;SDS011;53956;52.442;13.284;2023-10-09T04:39:13;6.83;;;4.60;;
18125;SDS011;53956;52.442;13.284;2023-10-09T04:42:02;7.67;;;5.00;;
18125;SDS011;53956;52.442;13.284;2023-10-09T04:44:47;7.83;;;4.53;;
18125;SDS011;53956;52.442;13.284;2023-10-09T04:47:44;6.70;;;4.70;;
18125;SDS011;53956;52.442;13.284;2023-10-09T04:50:23;8.17;;;4.57;;
18125;SDS011;53956;52.442;13.284;2023-10-09T04:53:12;7.77;;;4.37;;
18125;SDS011;53956;52.442;13.284;2023-10-09T04:55:51;9.73;;;4.77;;
18125;SDS011;53956;52.442;13.284;2023-10-09T04:58:22;7.17;;;4.60;;
18125;SDS011;53956;52.442;13.284;2023-10-09T05:00:50;7.10;;;4.97;;
18125;SDS011;53956;52.442;13.284;2023-10-09T05:03:38;7.00;;;4.10;;
18125;SDS011;53956;52.442;13.284;2023-10-09T05:06:17;8.20;;;4.83;;
18125;SDS011;53956;52.442;13.284;2023-10-09T05:08:46;7.43;;;4.40;;
18125;SDS011;53956;52.442;13.284;2023-10-09T05:11:15;7.03;;;4.40;;
18125;SDS011;53956;52.442;13.284;2023-10-09T05:13:59;7.03;;;4.80;;
18125;SDS011;53956;52.442;13.284;2023-10-09T05:16:37;6.20;;;4.30;;
18125;SDS011;53956;52.442;13.284;2023-10-09T05:19:09;6.83;;;4.80;;
18125;SDS011;53956;52.442;13.284;2023-10-09T05:21:54;7.40;;;5.10;;
18125;SDS011;53956;52.442;13.284;2023-10-09T05:24:23;9.97;;;4.70;;
18125;SDS011;53956;52.442;13.284;2023-10-09T05:26:52;8.83;;;5.17;;
18125;SDS011;53956;52.442;13.284;2023-10-09T05:29:39;8.97;;;4.80;;
18125;SDS011;53956;52.442;13.284;2023-10-09T05:32:14;8.00;;;5.03;;
18125;SDS011;53956;52.442;13.284;2023-10-09T05:34:53;6.43;;;4.73;;
18125;SDS011;53956;52.442;13.284;2023-10-09T05:37:40;9.20;;;5.40;;
18125;SDS011;53956;52.442;13.284;2023-10-09T05:40:09;8.50;;;5.07;;
18125;SDS011;53956;52.442;13.284;2023-10-09T05:42:49;9.13;;;5.10;;
18125;SDS011;53956;52.442;13.284;2023-10-09T05:45:28;9.30;;;5.40;;
18125;SDS011;53956;52.442;13.284;2023-10-09T05:48:12;7.10;;;4.67;;
18125;SDS011;53956;52.442;13.284;2023-10-09T05:50:56;7.10;;;5.20;;
18125;SDS011;53956;52.442;13.284;2023-10-09T05:53:37;7.93;;;5.17;;
18125;SDS011;53956;52.442;13.284;2023-10-09T05:56:17;9.33;;;5.10;;
18125;SDS011;53956;52.442;13.284;2023-10-09T05:59:03;10.23;;;5.50;;
18125;SDS011;53956;52.442;13.284;2023-10-09T06:01:47;8.57;;;5.53;;
18125;SDS011;53956;52.442;13.284;2023-10-09T06:04:31;8.33;;;5.17;;
18125;SDS011;53956;52.442;13.284;2023-10-09T06:07:14;7.70;;;5.47;;
18125;SDS011;53956;52.442;13.284;2023-10-09T06:09:48;9.13;;;5.50;;
18125;SDS011;53956;52.442;13.284;2023-10-09T06:12:17;7.57;;;5.30;;
18125;SDS011;53956;52.442;13.284;2023-10-09T06:15:15;7.77;;;5.07;;
18125;SDS011;53956;52.442;13.284;2023-10-09T06:17:56;7.83;;;5.20;;
18125;SDS011;53956;52.442;13.284;2023-10-09T06:20:42;7.07;;;4.67;;
18125;SDS011;53956;52.442;13.284;2023-10-09T06:23:23;8.10;;;5.03;;
18125;SDS011;53956;52.442;13.284;2023-10-09T06:26:09;7.20;;;5.10;;
18125;SDS011;53956;52.442;13.284;2023-10-09T06:28:49;9.13;;;5.67;;
18125;SDS011;53956;52.442;13.284;2023-10-09T06:31:36;8.37;;;5.23;;
18125;SDS011;53956;52.442;13.284;2023-10-09T06:34:17;6.97;;;4.80;;
18125;SDS011;53956;52.442;13.284;2023-10-09T06:36:45;7.80;;;5.10;;
18125;SDS011;53956;52.442;13.284;2023-10-09T06:39:18;7.13;;;5.20;;
18125;SDS011;53956;52.442;13.284;2023-10-09T06:42:02;7.47;;;5.23;;
18125;SDS011;53956;52.442;13.284;2023-10-09T06:44:36;7.03;;;5.57;;
18125;SDS011;53956;52.442;13.284;2023-10-09T06:47:19;7.73;;;5.27;;
18125;SDS011;53956;52.442;13.284;2023-10-09T06:49:49;8.13;;;5.40;;
18125;SDS011;53956;52.442;13.284;2023-10-09T06:52:38;9.20;;;5.30;;
18125;SDS011;53956;52.442;13.284;2023-10-09T06:55:24;7.60;;;5.40;;
18125;SDS011;53956;52.442;13.284;2023-10-09T06:58:02;10.00;;;4.90;;
18125;SDS011;53956;52.442;13.284;2023-10-09T07:00:37;8.17;;;5.20;;
18125;SDS011;53956;52.442;13.284;2023-10-09T07:03:27;9.00;;;5.70;;
18125;SDS011;53956;52.442;13.284;2023-10-09T07:06:02;8.27;;;5.80;;
18125;SDS011;53956;52.442;13.284;2023-10-09T07:08:35;8.07;;;5.30;;
18125;SDS011;53956;52.442;13.284;2023-10-09T07:11:02;7.33;;;5.10;;
18125;SDS011;53956;52.442;13.284;2023-10-09T07:13:43;7.83;;;4.93;;
18125;SDS011;53956;52.442;13.284;2023-10-09T07:16:19;9.37;;;5.20;;
18125;SDS011;53956;52.442;13.284;2023-10-09T07:19:04;7.00;;;5.03;;
18125;SDS011;53956;52.442;13.284;2023-10-09T07:21:50;8.37;;;5.10;;
18125;SDS011;53956;52.442;13.284;2023-10-09T07:24:19;7.57;;;4.90;;
18125;SDS011;53956;52.442;13.284;2023-10-09T07:26:49;10.13;;;5.00;;
18125;SDS011;53956;52.442;13.284;2023-10-09T07:29:18;6.43;;;4.70;;
18125;SDS011;53956;52.442;13.284;2023-10-09T07:31:48;6.77;;;4.80;;
18125;SDS011;53956;52.442;13.284;2023-10-09T07:34:23;6.53;;;5.03;;
18125;SDS011;53956;52.442;13.284;2023-10-09T07:36:57;9.47;;;5.10;;
18125;SDS011;53956;52.442;13.284;2023-10-09T07:39:29;6.47;;;4.77;;
18125;SDS011;53956;52.442;13.284;2023-10-09T07:42:00;6.43;;;4.83;;
18125;SDS011;53956;52.442;13.284;2023-10-09T07:44:40;6.60;;;4.63;;
18125;SDS011;53956;52.442;13.284;2023-10-09T07:47:12;8.07;;;5.33;;
18125;SDS011;53956;52.442;13.284;2023-10-09T07:49:46;7.30;;;4.97;;
18125;SDS011;53956;52.442;13.284;2023-10-09T07:52:20;6.37;;;4.93;;
18125;SDS011;53956;52.442;13.284;2023-10-09T07:54:50;7.97;;;5.50;;
18125;SDS011;53956;52.442;13.284;2023-10-09T07:57:19;9.40;;;5.90;;
18125;SDS011;53956;52.442;13.284;2023-10-09T07:59:51;10.00;;;5.37;;
18125;SDS011;53956;52.442;13.284;2023-10-09T08:02:26;9.13;;;4.97;;
18125;SDS011;53956;52.442;13.284;2023-10-09T08:04:59;8.77;;;5.63;;
18125;SDS011;53956;52.442;13.284;2023-10-09T08:07:31;8.37;;;4.87;;
18125;SDS011;53956;52.442;13.284;2023-10-09T08:10:02;8.83;;;5.27;;
18125;SDS011;53956;52.442;13.284;2023-10-09T08:12:47;9.10;;;4.67;;
18125;SDS011;53956;52.442;13.284;2023-10-09T08:15:45;8.33;;;5.17;;
18125;SDS011;53956;52.442;13.284;2023-10-09T08:18:16;7.60;;;4.83;;
18125;SDS011;53956;52.442;13.284;2023-10-09T08:20:54;9.07;;;4.80;;
18125;SDS011;53956;52.442;13.284;2023-10-09T08:23:35;6.00;;;4.80;;
18125;SDS011;53956;52.442;13.284;2023-10-09T08:26:14;10.77;;;4.87;;
18125;SDS011;53956;52.442;13.284;2023-10-09T08:28:42;6.10;;;4.30;;
18125;SDS011;53956;52.442;13.284;2023-10-09T08:31:11;8.53;;;4.77;;
18125;SDS011;53956;52.442;13.284;2023-10-09T08:33:44;5.80;;;4.57;;
18125;SDS011;53956;52.442;13.284;2023-10-09T08:36:22;6.93;;;4.60;;
18125;SDS011;53956;52.442;13.284;2023-10-09T08:38:53;7.20;;;4.60;;
18125;SDS011;53956;52.442;13.284;2023-10-09T08:41:23;7.53;;;4.57;;
18125;SDS011;53956;52.442;13.284;2023-10-09T08:43:55;8.07;;;4.80;;
18125;SDS011;53956;52.442;13.284;2023-10-09T08:46:24;5.73;;;4.23;;
18125;SDS011;53956;52.442;13.284;2023-10-09T08:48:52;7.63;;;4.30;;
18125;SDS011;53956;52.442;13.284;2023-10-09T08:51:20;8.50;;;4.67;;
18125;SDS011;53956;52.442;13.284;2023-10-09T08:53:50;7.30;;;4.97;;
18125;SDS011;53956;52.442;13.284;2023-10-09T08:56:18;7.30;;;4.90;;
18125;SDS011;53956;52.442;13.284;2023-10-09T08:58:48;8.10;;;5.07;;
18125;SDS011;53956;52.442;13.284;2023-10-09T09:01:16;11.37;;;4.70;;
18125;SDS011;53956;52.442;13.284;2023-10-09T09:03:44;6.60;;;4.60;;
18125;SDS011;53956;52.442;13.284;2023-10-09T09:06:11;6.63;;;4.70;;
18125;SDS011;53956;52.442;13.284;2023-10-09T09:08:40;8.17;;;4.57;;
18125;SDS011;53956;52.442;13.284;2023-10-09T09:11:10;8.93;;;5.27;;
18125;SDS011;53956;52.442;13.284;2023-10-09T09:13:41;9.27;;;4.53;;
18125;SDS011;53956;52.442;13.284;2023-10-09T09:16:13;6.47;;;5.00;;
18125;SDS011;53956;52.442;13.284;2023-10-09T09:18:51;8.57;;;4.70;;
18125;SDS011;53956;52.442;13.284;2023-10-09T09:21:25;7.97;;;5.47;;
18125;SDS011;53956;52.442;13.284;2023-10-09T09:23:54;6.37;;;4.93;;
18125;SDS011;53956;52.442;13.284;2023-10-09T09:26:36;7.70;;;4.50;;
18125;SDS011;53956;52.442;13.284;2023-10-09T09:29:10;7.43;;;4.73;;
18125;SDS011;53956;52.442;13.284;2023-10-09T09:31:37;7.33;;;5.03;;
18125;SDS011;53956;52.442;13.284;2023-10-09T09:34:05;7.47;;;4.90;;
18125;SDS011;53956;52.442;13.284;2023-10-09T09:36:51;8.00;;;4.87;;
18125;SDS011;53956;52.442;13.284;2023-10-09T09:39:22;7.53;;;5.33;;
18125;SDS011;53956;52.442;13.284;2023-10-09T09:41:54;6.93;;;4.83;;
18125;SDS011;53956;52.442;13.284;2023-10-09T09:44:22;8.63;;;5.57;;
18125;SDS011;53956;52.442;13.284;2023-10-09T09:46:52;10.67;;;5.70;;
18125;SDS011;53956;52.442;13.284;2023-10-09T09:49:20;8.40;;;5.23;;
18125;SDS011;53956;52.442;13.284;2023-10-09T09:51:48;6.27;;;5.20;;
18125;SDS011;53956;52.442;13.284;2023-10-09T09:54:15;7.63;;;5.47;;
18125;SDS011;53956;52.442;13.284;2023-10-09T09:56:43;8.07;;;5.10;;
18125;SDS011;53956;52.442;13.284;2023-10-09T09:59:15;6.73;;;5.20;;
18125;SDS011;53956;52.442;13.284;2023-10-09T10:01:47;8.40;;;5.43;;
18125;SDS011;53956;52.442;13.284;2023-10-09T10:04:22;8.90;;;6.07;;
18125;SDS011;53956;52.442;13.284;2023-10-09T10:06:51;7.90;;;5.80;;
18125;SDS011;53956;52.442;13.284;2023-10-09T10:09:35;10.30;;;6.30;;
18125;SDS011;53956;52.442;13.284;2023-10-09T10:12:07;9.23;;;6.30;;
18125;SDS011;53956;52.442;13.284;2023-10-09T10:14:51;9.20;;;6.20;;
18125;SDS011;53956;52.442;13.284;2023-10-09T10:17:19;8.73;;;6.40;;
18125;SDS011;53956;52.442;13.284;2023-10-09T10:19:59;8.10;;;6.50;;
18125;SDS011;53956;52.442;13.284;2023-10-09T10:22:47;8.83;;;7.00;;
18125;SDS011;53956;52.442;13.284;2023-10-09T10:25:34;9.50;;;6.80;;
18125;SDS011;53956;52.442;13.284;2023-10-09T10:28:18;9.33;;;6.83;;
18125;SDS011;53956;52.442;13.284;2023-10-09T10:31:03;8.97;;;7.00;;
18125;SDS011;53956;52.442;13.284;2023-10-09T10:36:37;11.30;;;7.90;;
18125;SDS011;53956;52.442;13.284;2023-10-09T10:39:09;11.10;;;7.77;;
18125;SDS011;53956;52.442;13.284;2023-10-09T10:41:37;11.17;;;8.00;;
18125;SDS011;53956;52.442;13.284;2023-10-09T10:44:17;11.90;;;7.77;;
18125;SDS011;53956;52.442;13.284;2023-10-09T10:47:03;12.93;;;7.70;;
18125;SDS011;53956;52.442;13.284;2023-10-09T10:49:31;10.17;;;7.30;;
18125;SDS011;53956;52.442;13.284;2023-10-09T10:52:01;11.10;;;7.43;;
18125;SDS011;53956;52.442;13.284;2023-10-09T10:54:40;9.17;;;6.93;;
18125;SDS011;53956;52.442;13.284;2023-10-09T10:57:34;9.97;;;7.40;;
18125;SDS011;53956;52.442;13.284;2023-10-09T11:00:19;9.23;;;7.67;;
18125;SDS011;53956;52.442;13.284;2023-10-09T11:03:04;10.77;;;7.63;;
18125;SDS011;53956;52.442;13.284;2023-10-09T11:05:42;12.47;;;7.70;;
18125;SDS011;53956;52.442;13.284;2023-10-09T11:08:15;9.97;;;7.10;;
18125;SDS011;53956;52.442;13.284;2023-10-09T11:10:47;11.57;;;7.33;;
18125;SDS011;53956;52.442;13.284;2023-10-09T11:13:22;9.30;;;6.60;;
18125;SDS011;53956;52.442;13.284;2023-10-09T11:15:59;10.20;;;7.30;;
18125;SDS011;53956;52.442;13.284;2023-10-09T11:18:41;9.03;;;6.70;;
18125;SDS011;53956;52.442;13.284;2023-10-09T11:21:12;7.30;;;6.33;;
18125;SDS011;53956;52.442;13.284;2023-10-09T11:23:56;7.90;;;6.97;;
18125;SDS011;53956;52.442;13.284;2023-10-09T11:26:45;11.17;;;7.20;;
18125;SDS011;53956;52.442;13.284;2023-10-09T11:29:19;9.10;;;6.83;;
18125;SDS011;53956;52.442;13.284;2023-10-09T11:31:59;10.53;;;8.03;;
18125;SDS011;53956;52.442;13.284;2023-10-09T11:34:25;9.87;;;7.20;;
18125;SDS011;53956;52.442;13.284;2023-10-09T11:37:00;10.50;;;7.83;;
18125;SDS011;53956;52.442;13.284;2023-10-09T11:39:27;9.70;;;7.43;;
18125;SDS011;53956;52.442;13.284;2023-10-09T11:42:03;10.37;;;6.63;;
18125;SDS011;53956;52.442;13.284;2023-10-09T11:44:36;11.97;;;7.03;;
18125;SDS011;53956;52.442;13.284;2023-10-09T11:47:07;9.97;;;7.37;;
18125;SDS011;53956;52.442;13.284;2023-10-09T11:49:58;9.13;;;6.73;;
18125;SDS011;53956;52.442;13.284;2023-10-09T11:52:57;9.67;;;6.67;;
18125;SDS011;53956;52.442;13.284;2023-10-09T11:55:54;12.97;;;6.23;;
18125;SDS011;53956;52.442;13.284;2023-10-09T11:58:21;8.53;;;6.00;;
18125;SDS011;53956;52.442;13.284;2023-10-09T12:00:49;7.50;;;5.50;;
18125;SDS011;53956;52.442;13.284;2023-10-09T12:03:22;6.37;;;5.47;;
18125;SDS011;53956;52.442;13.284;2023-10-09T12:05:53;6.83;;;5.37;;
18125;SDS011;53956;52.442;13.284;2023-10-09T12:08:21;7.90;;;5.63;;
18125;SDS011;53956;52.442;13.284;2023-10-09T12:10:51;6.83;;;4.90;;
18125;SDS011;53956;52.442;13.284;2023-10-09T12:13:20;8.43;;;5.20;;
18125;SDS011;53956;52.442;13.284;2023-10-09T12:15:47;6.80;;;5.23;;
18125;SDS011;53956;52.442;13.284;2023-10-09T12:18:14;9.27;;;5.57;;
18125;SDS011;53956;52.442;13.284;2023-10-09T12:20:42;7.43;;;5.27;;
18125;SDS011;53956;52.442;13.284;2023-10-09T12:23:15;9.37;;;6.73;;
18125;SDS011;53956;52.442;13.284;2023-10-09T12:25:43;9.33;;;6.30;;
18125;SDS011;53956;52.442;13.284;2023-10-09T12:28:10;11.13;;;6.60;;
18125;SDS011;53956;52.442;13.284;2023-10-09T12:30:38;8.10;;;6.50;;
18125;SDS011;53956;52.442;13.284;2023-10-09T12:33:05;7.67;;;6.60;;
18125;SDS011;53956;52.442;13.284;2023-10-09T12:35:35;7.60;;;6.43;;
18125;SDS011;53956;52.442;13.284;2023-10-09T12:38:04;8.10;;;6.40;;
18125;SDS011;53956;52.442;13.284;2023-10-09T12:40:33;11.17;;;7.50;;
18125;SDS011;53956;52.442;13.284;2023-10-09T12:43:01;8.90;;;7.30;;
18125;SDS011;53956;52.442;13.284;2023-10-09T12:45:27;11.03;;;7.60;;
18125;SDS011;53956;52.442;13.284;2023-10-09T12:47:57;9.80;;;7.70;;
18125;SDS011;53956;52.442;13.284;2023-10-09T12:50:24;9.77;;;8.13;;
18125;SDS011;53956;52.442;13.284;2023-10-09T12:52:54;10.40;;;8.27;;
18125;SDS011;53956;52.442;13.284;2023-10-09T12:55:23;9.63;;;8.57;;
18125;SDS011;53956;52.442;13.284;2023-10-09T12:57:57;12.37;;;9.70;;
18125;SDS011;53956;52.442;13.284;2023-10-09T13:00:31;10.13;;;8.20;;
18125;SDS011;53956;52.442;13.284;2023-10-09T13:02:58;12.37;;;8.73;;
18125;SDS011;53956;52.442;13.284;2023-10-09T13:05:27;12.37;;;8.17;;
18125;SDS011;53956;52.442;13.284;2023-10-09T13:07:53;8.57;;;7.60;;
18125;SDS011;53956;52.442;13.284;2023-10-09T13:10:23;12.90;;;9.43;;
18125;SDS011;53956;52.442;13.284;2023-10-09T13:12:49;14.63;;;9.77;;
18125;SDS011;53956;52.442;13.284;2023-10-09T13:15:20;12.87;;;10.10;;
18125;SDS011;53956;52.442;13.284;2023-10-09T13:17:47;12.50;;;9.67;;
18125;SDS011;53956;52.442;13.284;2023-10-09T13:20:13;11.60;;;10.03;;
18125;SDS011;53956;52.442;13.284;2023-10-09T13:22:41;11.57;;;9.87;;
18125;SDS011;53956;52.442;13.284;2023-10-09T13:25:09;12.27;;;10.00;;
18125;SDS011;53956;52.442;13.284;2023-10-09T13:27:42;13.03;;;10.03;;
18125;SDS011;53956;52.442;13.284;2023-10-09T13:30:16;13.07;;;9.70;;
18125;SDS011;53956;52.442;13.284;2023-10-09T13:32:47;14.30;;;10.33;;
18125;SDS011;53956;52.442;13.284;2023-10-09T13:35:15;12.90;;;9.93;;
18125;SDS011;53956;52.442;13.284;2023-10-09T13:37:42;14.90;;;10.87;;
18125;SDS011;53956;52.442;13.284;2023-10-09T13:40:13;13.57;;;10.73;;
18125;SDS011;53956;52.442;13.284;2023-10-09T13:42:53;13.03;;;10.00;;
18125;SDS011;53956;52.442;13.284;2023-10-09T13:45:23;13.07;;;10.47;;
18125;SDS011;53956;52.442;13.284;2023-10-09T13:47:52;11.80;;;9.47;;
18125;SDS011;53956;52.442;13.284;2023-10-09T13:50:19;11.60;;;9.37;;
18125;SDS011;53956;52.442;13.284;2023-10-09T13:52:48;11.80;;;9.07;;
18125;SDS011;53956;52.442;13.284;2023-10-09T13:55:14;13.00;;;9.57;;
18125;SDS011;53956;52.442;13.284;2023-10-09T13:57:41;12.30;;;9.80;;
18125;SDS011;53956;52.442;13.284;2023-10-09T14:00:12;14.07;;;10.17;;
18125;SDS011;53956;52.442;13.284;2023-10-09T14:02:44;16.13;;;10.83;;
18125;SDS011;53956;52.442;13.284;2023-10-09T14:05:11;15.77;;;10.77;;
18125;SDS011;53956;52.442;13.284;2023-10-09T14:07:38;14.47;;;11.00;;
18125;SDS011;53956;52.442;13.284;2023-10-09T14:10:06;12.27;;;10.87;;
18125;SDS011;53956;52.442;13.284;2023-10-09T14:12:42;13.03;;;9.87;;
18125;SDS011;53956;52.442;13.284;2023-10-09T14:15:09;14.03;;;10.77;;
18125;SDS011;53956;52.442;13.284;2023-10-09T14:17:43;12.27;;;10.80;;
18125;SDS011;53956;52.442;13.284;2023-10-09T14:20:11;12.10;;;10.60;;
18125;SDS011;53956;52.442;13.284;2023-10-09T14:22:56;15.97;;;10.63;;
18125;SDS011;53956;52.442;13.284;2023-10-09T14:25:31;14.63;;;10.77;;
18125;SDS011;53956;52.442;13.284;2023-10-09T14:27:58;15.93;;;10.60;;
18125;SDS011;53956;52.442;13.284;2023-10-09T14:30:24;12.93;;;10.27;;
18125;SDS011;53956;52.442;13.284;2023-10-09T14:32:59;12.33;;;9.47;;
18125;SDS011;53956;52.442;13.284;2023-10-09T14:35:27;12.47;;;9.47;;
18125;SDS011;53956;52.442;13.284;2023-10-09T14:37:55;12.67;;;9.90;;
18125;SDS011;53956;52.442;13.284;2023-10-09T14:40:22;13.13;;;10.10;;
18125;SDS011;53956;52.442;13.284;2023-10-09T14:42:55;12.57;;;10.07;;
18125;SDS011;53956;52.442;13.284;2023-10-09T14:45:23;13.43;;;11.00;;
18125;SDS011;53956;52.442;13.284;2023-10-09T14:47:51;11.37;;;9.50;;
18125;SDS011;53956;52.442;13.284;2023-10-09T14:50:20;14.37;;;10.77;;
18125;SDS011;53956;52.442;13.284;2023-10-09T14:52:48;14.13;;;10.80;;
18125;SDS011;53956;52.442;13.284;2023-10-09T14:55:15;13.53;;;11.03;;
18125;SDS011;53956;52.442;13.284;2023-10-09T14:57:46;13.17;;;10.23;;
18125;SDS011;53956;52.442;13.284;2023-10-09T15:00:15;13.67;;;10.40;;
18125;SDS011;53956;52.442;13.284;2023-10-09T15:02:48;15.40;;;11.13;;
18125;SDS011;53956;52.442;13.284;2023-10-09T15:05:15;14.63;;;10.33;;
18125;SDS011;53956;52.442;13.284;2023-10-09T15:07:43;12.30;;;10.23;;
18125;SDS011;53956;52.442;13.284;2023-10-09T15:10:10;13.57;;;10.30;;